Time;durP1;ratioP1;P1;durP2;ratioP2;P2;SDS_P1;SDS_P2;PMS_P1;PMS_P2;Temp;Humidity;BMP_temperature;BMP_pressure;BME280_temperature;BME280_humidity;BME280_pressure;Samples;Min_cycle;Max_cycle;Signal;HPM_P1;HPM_P2
2023/01/02 10:38:40;;;;;;;0.00;0.00;;;13.10;99.90;;;;;;5043791;28;20044;-90
2023/01/02 10:41:12;;;;;;;0.00;0.00;;;13.10;99.90;;;;;;5019293;28;20037;-92
2023/01/02 10:43:37;;;;;;;0.00;0.00;;;;;;;;;;4997715;28;20113;-89
2023/01/02 11:53:23;;;;;;;0.08;0.08;;;12.20;99.90;;;;;;5021439;28;20038;-88
2023/01/02 11:55:58;;;;;;;0.00;0.00;;;12.10;99.90;;;;;;4996959;28;20065;-89
2023/01/02 11:58:24;;;;;;;0.00;0.00;;;;;;;;;;5002388;28;20026;-92
2023/01/02 12:00:54;;;;;;;0.00;0.00;;;12.30;99.90;;;;;;5008521;28;20041;-91
2023/01/02 12:03:25;;;;;;;0.10;0.10;;;12.30;99.90;;;;;;4994330;28;20041;-92
2023/01/02 12:06:08;;;;;;;0.00;0.00;;;13.70;99.90;;;;;;4999638;28;20030;-90
2023/01/02 12:09:03;;;;;;;0.00;0.00;;;11.80;99.90;;;;;;4998874;28;20026;-88
2023/01/02 12:11:47;;;;;;;0.00;0.00;;;12.30;99.90;;;;;;4991022;28;20405;-91
2023/01/02 12:14:27;;;;;;;0.00;0.00;;;12.30;99.90;;;;;;4999702;28;20122;-91
2023/01/02 12:16:57;;;;;;;;;;;12.30;99.90;;;;;;5000411;28;20040;-92
2023/01/02 12:19:29;;;;;;;0.00;0.00;;;12.30;99.90;;;;;;5001472;28;20390;-93
2023/01/02 12:22:20;;;;;;;0.00;0.00;;;12.20;99.90;;;;;;4995563;28;20104;-93
2023/01/02 12:25:00;;;;;;;0.00;0.00;;;12.40;99.90;;;;;;4996422;28;20030;-91
2023/01/02 12:27:43;;;;;;;0.00;0.00;;;12.40;99.90;;;;;;5002237;28;20109;-92
2023/01/02 12:30:17;;;;;;;0.00;0.00;;;12.30;99.90;;;;;;5014448;28;20427;-92
2023/01/02 12:33:13;;;;;;;0.00;0.00;;;12.20;99.90;;;;;;5001301;28;20034;-91
2023/01/02 12:36:01;;;;;;;0.00;0.00;;;12.20;99.90;;;;;;4996128;28;20113;-90
2023/01/02 12:38:45;;;;;;;0.10;0.10;;;12.30;99.90;;;;;;4998961;28;20109;-91
2023/01/02 12:41:13;;;;;;;0.00;0.00;;;12.30;99.90;;;;;;4997293;28;20504;-92
2023/01/02 12:44:08;;;;;;;0.00;0.00;;;12.30;99.90;;;;;;4999078;28;20026;-92
2023/01/02 12:46:58;;;;;;;0.00;0.00;;;12.20;99.90;;;;;;5013763;28;20089;-90
2023/01/02 12:49:52;;;;;;;0.00;0.00;;;12.30;99.90;;;;;;5001256;28;20519;-90
2023/01/02 12:52:25;;;;;;;0.00;0.00;;;12.30;99.90;;;;;;5001414;28;20389;-91
2023/01/02 12:55:28;;;;;;;0.00;0.00;;;12.20;99.90;;;;;;4998698;28;20516;-90
2023/01/02 12:58:01;;;;;;;0.00;0.00;;;12.20;99.90;;;;;;4989823;28;20370;-92
2023/01/02 13:00:48;;;;;;;0.00;0.00;;;13.10;99.90;;;;;;4998519;28;20026;-91
2023/01/02 13:03:37;;;;;;;0.00;0.00;;;12.10;99.90;;;;;;4995154;28;20112;-91
2023/01/02 13:06:41;;;;;;;0.00;0.00;;;12.00;99.90;;;;;;4989906;28;20034;-90
2023/01/02 13:09:15;;;;;;;0.00;0.00;;;11.70;99.90;;;;;;4993331;28;20042;-91
2023/01/02 13:12:04;;;;;;;0.00;0.00;;;11.60;99.90;;;;;;4987053;28;20033;-90
2023/01/02 13:14:45;;;;;;;0.10;0.10;;;12.50;99.90;;;;;;4990667;28;20029;-89
2023/01/02 13:17:28;;;;;;;0.00;0.00;;;11.40;99.90;;;;;;4999787;28;20025;-90
2023/01/02 13:20:03;;;;;;;0.00;0.00;;;11.40;99.90;;;;;;5002997;28;20026;-90
2023/01/02 13:22:44;;;;;;;0.00;0.00;;;11.40;99.90;;;;;;4999416;28;20034;-89
2023/01/02 13:25:15;;;;;;;0.00;0.00;;;11.40;99.90;;;;;;5015192;28;20116;-89
2023/01/02 13:27:43;;;;;;;0.08;0.08;;;11.30;99.90;;;;;;5000956;28;20021;-89
2023/01/02 13:30:31;;;;;;;0.00;0.00;;;11.40;99.90;;;;;;5003539;28;20036;-89
2023/01/02 13:32:57;;;;;;;0.00;0.00;;;;;;;;;;4985725;28;20061;-90
2023/01/02 13:35:23;;;;;;;0.00;0.00;;;;;;;;;;4999859;28;20084;-88
2023/01/02 13:37:52;;;;;;;0.00;0.00;;;11.40;99.90;;;;;;4998274;28;20061;-87
2023/01/02 13:40:31;;;;;;;0.00;0.00;;;11.30;99.90;;;;;;4996768;28;20032;-89
2023/01/02 13:43:02;;;;;;;0.00;0.00;;;11.40;99.90;;;;;;4995903;28;20408;-90
2023/01/02 13:45:29;;;;;;;0.00;0.00;;;;;;;;;;4997215;28;20022;-91
2023/01/02 13:47:59;;;;;;;0.10;0.10;;;11.40;99.90;;;;;;4995330;28;20670;-89
2023/01/02 13:50:31;;;;;;;0.05;0.05;;;11.30;99.90;;;;;;4995482;28;20026;-90
2023/01/02 13:53:05;;;;;;;0.05;0.05;;;11.40;99.90;;;;;;4995164;28;20056;-90
2023/01/02 13:55:55;;;;;;;0.00;0.00;;;11.50;99.90;;;;;;4995472;28;20038;-92
2023/01/02 13:58:36;;;;;;;0.10;0.10;;;11.40;99.90;;;;;;4987381;28;20068;-90
2023/01/02 14:01:22;;;;;;;0.00;0.00;;;11.40;99.90;;;;;;4997699;28;20496;-90
2023/01/02 14:04:06;;;;;;;0.10;0.10;;;11.40;99.90;;;;;;4999612;28;20029;-91
2023/01/02 14:06:34;;;;;;;0.03;0.03;;;11.30;99.90;;;;;;4991755;28;20120;-91
2023/01/02 14:09:17;;;;;;;0.00;0.00;;;11.20;99.90;;;;;;4996042;28;20037;-91
2023/01/02 14:12:11;;;;;;;0.00;0.00;;;11.30;99.90;;;;;;4995226;28;20115;-91
2023/01/02 14:14:50;;;;;;;0.00;0.00;;;11.20;99.90;;;;;;4994267;28;20101;-88
2023/01/02 14:17:43;;;;;;;0.00;0.00;;;11.40;99.90;;;;;;4994288;28;20080;-90
2023/01/02 14:20:17;;;;;;;0.05;0.05;;;11.40;99.90;;;;;;4987501;28;20032;-91
2023/01/02 14:22:51;;;;;;;0.10;0.10;;;11.50;99.90;;;;;;4989956;28;20026;-90
2023/01/02 14:25:30;;;;;;;0.00;0.00;;;11.50;99.90;;;;;;4989399;28;20030;-90
2023/01/02 14:28:13;;;;;;;0.00;0.00;;;11.50;99.90;;;;;;4992921;28;20038;-90
2023/01/02 14:30:41;;;;;;;0.00;0.00;;;11.50;99.90;;;;;;4996292;28;20038;-90
2023/01/02 14:33:08;;;;;;;0.10;0.10;;;11.50;99.90;;;;;;4996085;28;20476;-89
2023/01/02 14:35:47;;;;;;;0.00;0.00;;;11.40;99.90;;;;;;4999225;28;20042;-91
2023/01/02 14:38:21;;;;;;;0.00;0.00;;;11.50;99.90;;;;;;4994943;28;20026;-89
2023/01/02 14:40:47;;;;;;;0.00;0.00;;;;;;;;;;4994301;28;20044;-89
2023/01/02 14:43:30;;;;;;;0.00;0.00;;;11.50;99.90;;;;;;4993339;28;20038;-88
2023/01/02 14:46:05;;;;;;;0.00;0.00;;;11.10;99.90;;;;;;4993333;28;20152;-90
2023/01/02 14:48:37;;;;;;;0.10;0.10;;;11.40;99.90;;;;;;4992546;28;20045;-89
2023/01/02 14:51:08;;;;;;;0.10;0.10;;;11.30;99.90;;;;;;4991562;28;20033;-90
2023/01/02 14:54:10;;;;;;;0.10;0.10;;;11.30;99.90;;;;;;4993800;28;20037;-89
2023/01/02 14:56:38;;;;;;;0.00;0.00;;;11.30;99.90;;;;;;4990020;28;20034;-90
2023/01/02 14:59:26;;;;;;;0.00;0.00;;;11.20;99.90;;;;;;4991954;28;20034;-90
2023/01/02 15:02:02;;;;;;;0.00;0.00;;;11.10;99.90;;;;;;4992527;28;20038;-89
2023/01/02 15:04:37;;;;;;;0.00;0.00;;;11.10;99.90;;;;;;4997686;28;20111;-89
2023/01/02 15:07:09;;;;;;;0.00;0.00;;;11.10;99.90;;;;;;4997108;28;20172;-90
2023/01/02 15:09:57;;;;;;;0.00;0.00;;;11.10;99.90;;;;;;4997908;28;20060;-91
2023/01/02 15:15:19;;;;;;;0.10;0.10;;;10.80;99.90;;;;;;5012073;28;20457;-89
2023/01/02 15:17:47;;;;;;;0.00;0.00;;;11.00;99.90;;;;;;4995199;28;20037;-90
2023/01/02 15:20:21;;;;;;;0.00;0.00;;;10.70;99.90;;;;;;4992041;28;20022;-90
2023/01/02 15:22:47;;;;;;;0.00;0.00;;;;;;;;;;4997820;28;20018;-90
2023/01/02 15:25:27;;;;;;;0.00;0.00;;;10.80;99.90;;;;;;4993710;28;20026;-90
2023/01/02 15:27:53;;;;;;;;;;;10.50;99.90;;;;;;5018179;28;20018;-89
2023/01/02 15:30:33;;;;;;;0.10;0.10;;;10.70;99.90;;;;;;5000479;28;20000;-90
2023/01/02 15:32:58;;;;;;;;;;;10.70;99.90;;;;;;4995654;28;20136;-91
2023/01/02 15:35:31;;;;;;;0.00;0.00;;;10.80;99.90;;;;;;4997075;28;19945;-91
2023/01/02 15:37:57;;;;;;;0.10;0.10;;;;;;;;;;4994806;28;20477;-89
2023/01/02 15:40:22;;;;;;;0.03;0.03;;;10.70;99.90;;;;;;4990729;28;20052;-90
2023/01/02 15:45:34;;;;;;;0.00;0.00;;;10.70;99.90;;;;;;5014271;28;20580;-90
2023/01/02 15:48:01;;;;;;;0.10;0.10;;;10.70;99.90;;;;;;4996244;28;20469;-89
2023/01/02 15:50:28;;;;;;;0.10;0.10;;;10.70;99.90;;;;;;4998657;28;20042;-92
2023/01/02 15:53:01;;;;;;;0.08;0.08;;;10.60;99.90;;;;;;5002804;28;21008;-89
2023/01/02 15:55:32;;;;;;;0.00;0.00;;;10.60;99.90;;;;;;5000478;28;20120;-90
2023/01/02 15:57:58;;;;;;;0.10;0.10;;;;;;;;;;5000425;28;20109;-90
2023/01/02 16:00:35;;;;;;;0.00;0.00;;;10.70;99.90;;;;;;4996779;28;20042;-89
2023/01/02 16:03:01;;;;;;;0.10;0.10;;;;;;;;;;4993878;28;20094;-90
2023/01/02 16:05:28;;;;;;;0.05;0.05;;;;;;;;;;5000868;28;20034;-91
2023/01/02 16:07:56;;;;;;;0.00;0.00;;;10.70;99.90;;;;;;4990596;28;20039;-91
2023/01/02 16:10:28;;;;;;;0.00;0.00;;;10.60;99.90;;;;;;4999831;28;20042;-91
2023/01/02 16:12:59;;;;;;;0.00;0.00;;;10.60;99.90;;;;;;5001559;28;20037;-91
2023/01/02 16:15:29;;;;;;;0.00;0.00;;;10.60;99.90;;;;;;5015979;28;20032;-90
2023/01/02 16:17:55;;;;;;;0.05;0.05;;;;;;;;;;5005033;28;20030;-90
2023/01/02 16:20:22;;;;;;;0.10;0.10;;;10.70;99.90;;;;;;5014388;28;20093;-91
2023/01/02 16:23:04;;;;;;;0.00;0.00;;;10.60;99.90;;;;;;4997775;28;20034;-93
2023/01/02 16:25:35;;;;;;;0.00;0.00;;;10.60;99.90;;;;;;4992777;28;20108;-90
2023/01/02 16:28:11;;;;;;;0.00;0.00;;;10.60;99.90;;;;;;4997739;28;20045;-91
2023/01/02 16:30:39;;;;;;;0.00;0.00;;;10.70;99.90;;;;;;5000595;28;20030;-91
2023/01/02 16:33:23;;;;;;;0.00;0.00;;;10.70;99.90;;;;;;5004157;28;20120;-90
2023/01/02 16:35:55;;;;;;;0.00;0.00;;;10.70;99.90;;;;;;5003208;28;20121;-91
2023/01/02 16:38:26;;;;;;;0.00;0.00;;;10.70;99.90;;;;;;4999352;28;20026;-91
2023/01/02 16:41:04;;;;;;;0.05;0.05;;;10.60;99.90;;;;;;5007807;28;20030;-91
2023/01/02 16:43:31;;;;;;;0.00;0.00;;;10.60;99.90;;;;;;4999795;28;20061;-91
2023/01/02 16:45:58;;;;;;;0.00;0.00;;;10.60;99.90;;;;;;4990743;28;20088;-91
2023/01/02 16:48:27;;;;;;;0.00;0.00;;;10.60;99.90;;;;;;5000764;28;20030;-90
2023/01/02 16:50:53;;;;;;;0.10;0.10;;;10.60;99.90;;;;;;4998857;28;20029;-90
2023/01/02 16:53:27;;;;;;;0.00;0.00;;;10.60;99.90;;;;;;4999043;28;20030;-92
2023/01/02 16:55:53;;;;;;;0.05;0.05;;;;;;;;;;4995692;28;20061;-90
2023/01/02 16:58:19;;;;;;;0.10;0.10;;;10.60;99.90;;;;;;4997518;28;20096;-90
2023/01/02 17:00:45;;;;;;;0.10;0.10;;;;;;;;;;4998812;28;20026;-91
2023/01/02 17:03:15;;;;;;;0.10;0.10;;;10.50;99.90;;;;;;4998232;28;20473;-92
2023/01/02 17:05:45;;;;;;;0.05;0.05;;;10.60;99.90;;;;;;4995270;28;20125;-90
2023/01/02 17:08:10;;;;;;;;;;;10.30;99.90;;;;;;4994471;28;20052;-91
2023/01/02 17:10:36;;;;;;;0.10;0.10;;;;;;;;;;4999634;28;20420;-91
2023/01/02 17:13:03;;;;;;;0.00;0.00;;;10.50;99.90;;;;;;4993895;28;20066;-90
2023/01/02 17:15:31;;;;;;;0.10;0.10;;;10.40;99.90;;;;;;4991607;28;20030;-91
2023/01/02 17:17:56;;;;;;;0.10;0.10;;;;;;;;;;4994147;28;20061;-90
2023/01/02 17:20:22;;;;;;;0.05;0.05;;;10.50;99.90;;;;;;5013653;28;20500;-90
2023/01/02 17:22:48;;;;;;;0.00;0.00;;;;;;;;;;5000067;28;20034;-91
2023/01/02 17:25:15;;;;;;;0.10;0.10;;;10.70;99.90;;;;;;4998192;28;20465;-90
2023/01/02 17:27:41;;;;;;;0.00;0.00;;;10.60;99.90;;;;;;5004761;28;20034;-90
2023/01/02 17:30:08;;;;;;;0.00;0.00;;;;;;;;;;4999931;28;20102;-91
2023/01/02 17:32:33;;;;;;;0.00;0.00;;;;;;;;;;4996359;28;20064;-92
2023/01/02 17:34:59;;;;;;;0.00;0.00;;;;;;;;;;5000827;28;20026;-91
2023/01/02 17:37:25;;;;;;;0.05;0.05;;;10.50;99.90;;;;;;4996554;28;20034;-90
2023/01/02 17:39:51;;;;;;;0.00;0.00;;;10.20;99.90;;;;;;4995260;28;20397;-89
2023/01/02 17:42:17;;;;;;;0.00;0.00;;;;;;;;;;4996915;28;20401;-91
2023/01/02 17:44:43;;;;;;;0.00;0.00;;;;;;;;;;5000779;28;20030;-90
2023/01/02 17:47:09;;;;;;;0.00;0.00;;;;;;;;;;5000073;28;20037;-90
2023/01/02 17:49:38;;;;;;;0.00;0.00;;;10.60;99.90;;;;;;4993475;28;20500;-90
2023/01/02 17:52:04;;;;;;;0.00;0.00;;;;;;;;;;4992643;28;20038;-90
2023/01/02 17:54:29;;;;;;;0.00;0.00;;;10.50;99.90;;;;;;4987980;28;20034;-89
2023/01/02 17:56:56;;;;;;;0.10;0.10;;;;;;;;;;4997213;28;20380;-90
2023/01/02 17:59:22;;;;;;;0.08;0.08;;;;;;;;;;4997669;28;20044;-91
2023/01/02 18:01:48;;;;;;;0.00;0.00;;;;;;;;;;4999361;28;20443;-91
2023/01/02 20:48:41;;;;;;;0.10;0.10;;;;;;;;;;4977473;28;20078;-96
